메인 페이지
METAR-TAF:

METAR-TAF

공항 :

시르나크, 터키

위도: 37-21-50N, 경도: 42-03-36E, 고도: 621m

현재 날씨관측

예보는 48분 전, 13:50시(UTC)에 발표되었습니다.
남동7kt
온도 11°C
습도 94%
기압 1018 hPa
시정 10km 이상
고도 2800ft 상공 구름 보통
고도 10000ft 상공 구름 많음

METAR: LTCV 141350Z 13007KT 9999 SCT028 BKN100 11/10 Q1018

시각: 17:38 (14:38 UTC)

예보

예보는 3 시간 58분 전, 10:40시(UTC)에 발표되었습니다.
예보 대상 시간: 14일 12시부터 14일 21시까지 (UTC)
동남동8kt
시정 10km 이상
고도 1500ft 상공 구름 조금
고도 3500ft 상공 구름 많음
고도 9000ft 상공 흐림
일시적
14일 12시부터 14일 16시까지 (UTC)
시정: 2500m
고도 1000ft 상공 구름 조금
고도 3000ft 상공 구름 많음
고도 8000ft 상공 흐림
비, 박무
일시적
14일 16시부터 14일 20시까지 (UTC)
시정: 4000m
고도 1000ft 상공 구름 조금
고도 3000ft 상공 구름 많음
고도 8000ft 상공 흐림
약한비, 박무

TAF: LTCV 141040Z 1412/1421 12008KT 9999 FEW015 BKN035 OVC090 TEMPO 1412/1416 2500 RA BR FEW010 BKN030 OVC080 TEMPO 1416/1420 4000 -RA BR FEW010 BKN030 OVC080

4,000개 이상의 공항 관측 자료 및 예보 (METAR 및 TAF 보고).

지도상에서 검색 가능한 기상관측소가 노란 점과 빨간 점으로 표시되어 있습니다.

기상관측소 명을 보려면 표시 위로 마우스를 이동하세요.

날씨 관측과 예보를 보려면 클릭하세요.

지도 변경 : 확대하려면 엑스 표시가 있는 녹색 버튼, 축소하려면 빼기 표시가 있는 녹색 버튼, 다음 페이지의 지도를 보려면 녹색 화살표를 클릭하세요.


METAR-TAF: